Time;durP1;ratioP1;P1;durP2;ratioP2;P2;SDS_P1;SDS_P2;PMS_P1;PMS_P2;Temp;Humidity;BMP_temperature;BMP_pressure;BME280_temperature;BME280_humidity;BME280_pressure;Samples;Min_cycle;Max_cycle;Signal;HPM_P1;HPM_P2
2022/06/11 00:00:11;;;;;;;2.80;1.50;;;16.60;99.90;;;;;;20710592;28;20183;-39
2022/06/11 00:10:12;;;;;;;2.50;1.05;;;16.50;99.90;;;;;;20720070;28;20431;-39
2022/06/11 00:20:14;;;;;;;2.60;0.95;;;16.40;99.90;;;;;;20733103;28;20049;-39
2022/06/11 00:30:18;;;;;;;3.45;1.25;;;16.40;99.90;;;;;;20733582;28;20239;-39
2022/06/11 00:40:23;;;;;;;3.83;1.10;;;16.30;99.90;;;;;;20734536;28;21458;-39
2022/06/11 00:50:40;;;;;;;2.97;0.85;;;16.20;99.90;;;;;;20741847;28;20045;-39
2022/06/11 01:00:49;;;;;;;1.48;0.47;;;16.20;99.90;;;;;;20728459;28;21389;-39
2022/06/11 01:11:09;;;;;;;2.70;0.60;;;16.10;99.90;;;;;;20744037;28;20052;-39
2022/06/11 01:21:25;;;;;;;1.85;0.60;;;16.10;99.90;;;;;;20737386;28;20049;-41
2022/06/11 01:31:50;;;;;;;2.17;0.80;;;16.10;99.90;;;;;;20734887;28;20056;-41
2022/06/11 01:41:59;;;;;;;1.10;0.50;;;16.00;99.90;;;;;;20728068;28;21255;-41
2022/06/11 01:52:12;;;;;;;1.45;0.40;;;15.90;99.90;;;;;;20733678;28;20477;-41
2022/06/11 02:02:44;;;;;;;1.88;0.82;;;15.90;99.90;;;;;;20729268;28;20049;-41
2022/06/11 02:12:54;;;;;;;0.93;0.40;;;15.80;99.90;;;;;;20733547;28;21574;-41
2022/06/11 02:23:14;;;;;;;2.15;1.10;;;15.90;99.90;;;;;;20726220;28;20496;-41
2022/06/11 02:33:17;;;;;;;1.10;0.38;;;15.90;99.90;;;;;;20730949;28;21559;-41
2022/06/11 02:43:19;;;;;;;2.33;0.82;;;15.80;99.90;;;;;;20734143;28;20481;-41
2022/06/11 02:53:20;;;;;;;0.98;0.40;;;15.70;99.90;;;;;;20735294;28;20045;-41
2022/06/11 03:03:23;;;;;;;1.70;0.50;;;15.60;99.90;;;;;;20717051;28;20508;-41
2022/06/11 03:13:25;;;;;;;1.25;0.73;;;15.50;99.90;;;;;;20725316;28;20042;-41
2022/06/11 03:23:29;;;;;;;1.92;0.82;;;15.50;99.90;;;;;;20726039;28;20493;-41
2022/06/11 03:33:30;;;;;;;1.60;0.50;;;15.60;99.90;;;;;;20722557;28;20045;-41
2022/06/11 03:43:31;;;;;;;7.22;1.58;;;15.50;99.90;;;;;;20731157;28;20689;-41
2022/06/11 03:53:32;;;;;;;1.42;0.70;;;15.40;99.90;;;;;;20725278;28;20056;-41
2022/06/11 04:03:34;;;;;;;2.58;1.63;;;15.30;99.90;;;;;;20721407;28;20046;-41
2022/06/11 04:13:39;;;;;;;3.45;0.70;;;15.30;99.90;;;;;;20740420;28;20524;-41
2022/06/11 04:23:44;;;;;;;1.33;0.52;;;15.30;99.90;;;;;;20726730;28;20832;-41
2022/06/11 04:33:49;;;;;;;1.90;0.60;;;15.20;99.90;;;;;;20737293;28;20084;-41
2022/06/11 04:43:50;;;;;;;6.28;2.17;;;15.20;99.90;;;;;;20730169;28;20068;-41
2022/06/11 04:53:52;;;;;;;2.58;1.08;;;15.30;99.90;;;;;;20736276;28;20416;-41
2022/06/11 05:03:53;;;;;;;3.63;1.23;;;15.50;99.90;;;;;;20738390;28;20336;-41
2022/06/11 05:13:54;;;;;;;2.13;0.75;;;15.60;99.90;;;;;;20716231;28;21716;-41
2022/06/11 05:23:55;;;;;;;6.57;1.10;;;15.80;99.90;;;;;;20733090;28;20065;-41
2022/06/11 05:33:56;;;;;;;5.15;1.20;;;16.00;99.90;;;;;;20734918;28;20446;-41
2022/06/11 05:43:57;;;;;;;2.80;1.10;;;16.20;99.90;;;;;;20729152;28;21426;-41
2022/06/11 05:54:02;;;;;;;4.03;1.40;;;16.40;99.90;;;;;;20736121;28;20450;-41
2022/06/11 06:04:03;;;;;;;3.33;1.75;;;16.60;99.90;;;;;;20731095;28;20400;-41
2022/06/11 06:14:04;;;;;;;6.20;1.42;;;16.80;99.90;;;;;;20731581;28;20064;-41
2022/06/11 06:24:06;;;;;;;2.50;1.10;;;17.00;99.90;;;;;;20707717;28;20488;-41
2022/06/11 06:34:08;;;;;;;3.50;1.33;;;17.00;99.90;;;;;;20721012;28;20045;-41
2022/06/11 06:44:09;;;;;;;4.90;1.35;;;17.30;99.90;;;;;;20699513;28;20206;-41
2022/06/11 06:54:10;;;;;;;3.78;1.20;;;17.40;99.90;;;;;;20723361;28;20516;-39
2022/06/11 07:04:12;;;;;;;5.43;2.42;;;17.40;99.90;;;;;;20716967;28;20580;-39
2022/06/11 07:14:15;;;;;;;5.43;1.40;;;17.70;99.90;;;;;;20693897;28;20049;-39
2022/06/11 07:24:21;;;;;;;2.92;1.10;;;17.90;99.90;;;;;;20705852;28;20180;-38
2022/06/11 07:34:22;;;;;;;3.80;1.25;;;18.20;99.90;;;;;;20653437;28;20564;-39
2022/06/11 07:44:23;;;;;;;2.83;1.10;;;18.20;99.90;;;;;;20690776;28;20049;-39
2022/06/11 07:54:24;;;;;;;3.63;1.02;;;18.20;99.90;;;;;;20665003;28;20323;-38
2022/06/11 08:04:27;;;;;;;2.78;1.10;;;18.40;99.90;;;;;;20689381;28;20041;-39
2022/06/11 08:14:28;;;;;;;3.85;1.10;;;18.40;99.90;;;;;;20678559;28;20054;-39
2022/06/11 08:24:29;;;;;;;2.58;1.08;;;18.80;99.90;;;;;;20695083;28;20048;-38
2022/06/11 08:34:31;;;;;;;2.03;0.75;;;18.80;99.90;;;;;;20696984;28;20819;-39
2022/06/11 08:44:35;;;;;;;3.30;0.80;;;19.10;99.90;;;;;;20701321;28;20236;-42
2022/06/11 08:54:41;;;;;;;3.38;0.60;;;19.20;99.90;;;;;;20716020;28;20041;-39
2022/06/11 09:05:10;;;;;;;4.20;1.45;;;19.50;99.90;;;;;;20731510;28;20057;-39
2022/06/11 09:15:19;;;;;;;2.97;0.80;;;19.70;99.90;;;;;;20737156;28;20072;-39
2022/06/11 09:25:52;;;;;;;2.78;1.30;;;20.10;99.90;;;;;;20738951;28;20056;-39
2022/06/11 09:36:12;;;;;;;1.90;0.70;;;20.20;99.90;;;;;;20707670;28;20403;-39
2022/06/11 09:46:17;;;;;;;1.77;0.70;;;20.30;99.90;;;;;;20724812;28;20499;-39
2022/06/11 09:56:18;;;;;;;3.95;1.02;;;20.50;99.90;;;;;;20743935;28;20037;-39
2022/06/11 10:06:27;;;;;;;1.48;0.55;;;20.60;99.90;;;;;;20742821;28;20195;-39
2022/06/11 10:16:37;;;;;;;1.80;0.80;;;20.60;99.90;;;;;;20739855;28;20061;-39
2022/06/11 10:26:46;;;;;;;2.35;1.05;;;20.60;99.90;;;;;;20729287;28;21605;-39
2022/06/11 10:36:55;;;;;;;6.95;1.50;;;20.80;99.90;;;;;;20733486;28;20050;-39
2022/06/11 10:46:56;;;;;;;3.38;1.17;;;21.10;99.90;;;;;;20686144;28;20053;-39
2022/06/11 10:57:06;;;;;;;7.82;1.17;;;21.20;99.90;;;;;;20734352;28;20114;-39
2022/06/11 11:07:12;;;;;;;2.85;1.00;;;21.00;99.90;;;;;;20731874;28;20046;-39
2022/06/11 11:17:22;;;;;;;3.47;1.27;;;20.90;99.90;;;;;;20712421;28;20676;-39
2022/06/11 11:27:29;;;;;;;4.32;1.10;;;20.90;99.90;;;;;;20720254;28;20396;-39
2022/06/11 11:37:37;;;;;;;4.72;1.17;;;21.10;99.90;;;;;;20716119;28;20125;-39
2022/06/11 11:47:40;;;;;;;8.32;1.90;;;21.00;99.90;;;;;;20694083;28;20058;-39
2022/06/11 11:57:47;;;;;;;2.42;0.93;;;21.30;99.90;;;;;;20713369;28;20397;-40
2022/06/11 12:07:51;;;;;;;2.80;1.03;;;21.70;99.90;;;;;;20674535;28;20049;-39
2022/06/11 12:18:12;;;;;;;6.97;2.38;;;21.70;99.90;;;;;;20724067;28;20630;-39
2022/06/11 12:28:17;;;;;;;7.47;1.80;;;22.70;99.90;;;;;;20683045;28;20539;-39
2022/06/11 12:38:50;;;;;;;2.55;1.05;;;22.40;99.90;;;;;;20724047;28;20075;-39
2022/06/11 12:49:18;;;;;;;2.85;0.73;;;22.10;99.90;;;;;;20717318;28;20482;-39
2022/06/11 12:59:46;;;;;;;1.97;0.80;;;22.80;99.90;;;;;;20738651;28;20042;-39
2022/06/11 13:10:00;;;;;;;;;;;22.50;99.90;;;;;;20732177;28;20468;-39
2022/06/11 13:20:21;;;;;;;4.22;1.20;;;22.80;99.90;;;;;;20723148;28;20373;-39
2022/06/11 13:30:41;;;;;;;7.18;1.83;;;23.10;99.90;;;;;;20731176;28;20522;-39
2022/06/11 13:40:56;;;;;;;3.70;1.40;;;23.00;99.90;;;;;;20736447;28;20516;-38
2022/06/11 13:51:06;;;;;;;2.30;1.00;;;23.30;99.90;;;;;;20720021;28;20049;-39
2022/06/11 14:01:34;;;;;;;12.80;0.90;;;23.10;99.90;;;;;;20752336;28;20054;-39
2022/06/11 14:11:35;;;;;;;2.00;0.70;;;23.30;99.90;;;;;;20719592;28;20517;-39
2022/06/11 14:21:39;;;;;;;10.05;1.05;;;23.40;99.90;;;;;;20733707;28;20481;-39
2022/06/11 14:31:57;;;;;;;5.07;1.63;;;23.30;99.90;;;;;;20740437;28;20404;-39
2022/06/11 14:42:50;;;;;;;1.67;0.40;;;23.20;98.40;;;;;;20740814;28;20046;-39
2022/06/11 14:52:51;;;;;;;1.52;0.60;;;22.80;99.10;;;;;;20729867;28;20306;-39
2022/06/11 15:03:14;;;;;;;1.75;0.52;;;22.80;97.20;;;;;;20725945;28;20037;-39
2022/06/11 15:13:36;;;;;;;0.90;0.45;;;22.90;96.40;;;;;;20727968;28;21379;-39
2022/06/11 15:23:42;;;;;;;1.27;0.50;;;22.80;98.60;;;;;;20735286;28;20754;-39
2022/06/11 15:33:53;;;;;;;5.97;1.13;;;22.60;98.70;;;;;;20736742;28;20128;-39
2022/06/11 15:43:57;;;;;;;1.95;0.93;;;22.60;98.20;;;;;;20732870;28;20041;-39
2022/06/11 16:04:34;;;;;;;1.75;0.50;;;22.70;97.20;;;;;;20739325;28;20485;-38
2022/06/11 16:14:41;;;;;;;1.42;0.77;;;22.50;95.90;;;;;;20734034;28;20056;-39
2022/06/11 16:24:46;;;;;;;5.57;0.40;;;22.40;96.10;;;;;;20738122;28;20037;-39
2022/06/11 16:34:50;;;;;;;0.85;0.45;;;22.30;96.40;;;;;;20748765;28;20165;-39
2022/06/11 16:44:53;;;;;;;0.70;0.40;;;22.10;96.40;;;;;;20739802;28;20046;-39
2022/06/11 17:05:05;;;;;;;1.40;0.20;;;21.80;96.50;;;;;;20751653;28;20065;-39
2022/06/11 17:15:09;;;;;;;1.33;0.40;;;21.60;97.60;;;;;;20736244;28;20053;-39
2022/06/11 17:25:11;;;;;;;0.88;0.43;;;21.60;97.00;;;;;;20737248;28;21483;-39
2022/06/11 17:35:12;;;;;;;2.03;0.50;;;21.30;97.20;;;;;;20732869;28;20060;-39
2022/06/11 17:45:20;;;;;;;0.65;0.10;;;21.20;97.00;;;;;;20722395;28;20495;-38
2022/06/11 17:55:24;;;;;;;1.23;0.38;;;21.00;97.00;;;;;;20731276;28;20038;-39
2022/06/11 18:05:30;;;;;;;1.15;0.30;;;20.90;97.50;;;;;;20735173;28;20046;-39
2022/06/11 18:15:34;;;;;;;0.90;0.25;;;20.80;97.30;;;;;;20742826;28;20501;-39
2022/06/11 18:25:36;;;;;;;0.52;0.17;;;20.50;97.40;;;;;;20741635;28;20057;-39
2022/06/11 18:35:38;;;;;;;1.33;0.50;;;20.30;97.50;;;;;;20743439;28;20042;-39
2022/06/11 18:45:39;;;;;;;2.05;0.13;;;20.10;97.70;;;;;;20727321;28;20509;-39
2022/06/11 18:55:41;;;;;;;0.63;0.13;;;20.00;97.40;;;;;;20726169;28;20057;-39
2022/06/11 19:05:42;;;;;;;0.68;0.17;;;19.80;98.50;;;;;;20708891;28;20053;-39
2022/06/11 19:15:43;;;;;;;0.73;0.20;;;19.60;98.40;;;;;;20722926;28;20041;-39
2022/06/11 19:25:47;;;;;;;0.73;0.52;;;19.40;99.00;;;;;;20720791;28;20050;-39
2022/06/11 19:35:53;;;;;;;1.40;0.43;;;19.20;99.10;;;;;;20706584;28;20037;-39
2022/06/11 19:45:55;;;;;;;0.80;0.35;;;19.00;99.90;;;;;;20705734;28;20664;-39
2022/06/11 19:55:57;;;;;;;0.65;0.20;;;18.80;99.70;;;;;;20696047;28;20115;-39
2022/06/11 20:06:04;;;;;;;0.40;0.10;;;18.60;99.90;;;;;;20693772;28;20624;-39
2022/06/11 20:16:06;;;;;;;1.00;0.13;;;18.30;99.90;;;;;;20714922;28;20132;-39
2022/06/11 20:26:09;;;;;;;1.38;0.20;;;18.10;99.90;;;;;;20718733;28;20061;-39
2022/06/11 20:36:12;;;;;;;1.58;0.28;;;17.80;99.90;;;;;;20710285;28;20536;-39
2022/06/11 20:46:13;;;;;;;0.32;0.10;;;17.70;99.90;;;;;;20714834;28;20060;-39
2022/06/11 20:56:14;;;;;;;0.95;0.30;;;17.40;99.90;;;;;;20727831;28;20477;-39
2022/06/11 21:06:15;;;;;;;1.30;0.20;;;17.10;99.90;;;;;;20735763;28;20081;-38
2022/06/11 21:16:16;;;;;;;1.35;0.30;;;16.70;99.90;;;;;;20722891;28;20053;-39
2022/06/11 21:26:18;;;;;;;0.43;0.20;;;16.50;99.90;;;;;;20706000;28;20081;-41
2022/06/11 21:36:21;;;;;;;2.58;0.50;;;16.10;99.90;;;;;;20728898;28;20033;-41
2022/06/11 21:46:22;;;;;;;0.98;0.85;;;16.20;99.90;;;;;;20700371;28;20049;-41
2022/06/11 21:56:24;;;;;;;2.40;1.00;;;15.90;99.90;;;;;;20730710;28;20057;-41
2022/06/11 22:06:28;;;;;;;2.55;0.40;;;15.80;99.90;;;;;;20724356;28;20050;-41
2022/06/11 22:16:33;;;;;;;1.20;0.40;;;15.40;99.90;;;;;;20725066;28;20053;-41
2022/06/11 22:26:34;;;;;;;1.05;0.30;;;15.20;99.90;;;;;;20717137;28;20049;-41
2022/06/11 22:36:35;;;;;;;1.00;0.30;;;15.10;99.90;;;;;;20724209;28;20460;-41
2022/06/11 22:46:37;;;;;;;2.95;0.45;;;14.90;99.90;;;;;;20719609;28;20033;-41
2022/06/11 22:56:40;;;;;;;0.80;0.30;;;15.00;99.90;;;;;;20715440;28;21386;-41
2022/06/11 23:06:41;;;;;;;0.73;0.30;;;15.10;99.90;;;;;;20714375;28;20052;-41
2022/06/11 23:16:43;;;;;;;1.70;0.63;;;15.20;99.90;;;;;;20722878;28;20397;-41
2022/06/11 23:26:44;;;;;;;2.78;0.60;;;15.20;99.90;;;;;;20716920;28;21061;-41
2022/06/11 23:36:45;;;;;;;2.08;1.05;;;15.20;99.90;;;;;;20721331;28;20048;-41
2022/06/11 23:46:47;;;;;;;5.78;0.68;;;15.20;99.90;;;;;;20717970;28;20038;-41
2022/06/11 23:56:48;;;;;;;3.90;1.02;;;15.10;99.90;;;;;;20716564;28;20049;-41
